ASA99 KSEA-PANC
Flight info
| Callsign | ASA99 |
|---|---|
| Flight time | N/A |
| Altitude | 34000 |
| Route | BANGR9 ARRIE FOCHE PRYCE BKA LAIRE JOH PTERS3 |
| Aircraft | B739/M-SDE2E3FGHIRWXY/LB1 |
Departure
| Time | 2026-05-06 00:39 |
|---|---|
| Airport | Seattle–Tacoma International Airport (KSEA) |
Arrival
| Time | N/A |
|---|---|
| Airport | Ted Stevens Anchorage International Airport (PANC) |
| Time | Latitude | Longitude | Altitude | Speed | Heading |
|---|---|---|---|---|---|
| 2026-05-05 23:54 | 47.44604 | -122.30297 | 402 ft | 0 kts | 277° |
| 2026-05-06 00:23 | 47.44603 | -122.30289 | 402 ft | 4 kts | 276° |
| 2026-05-06 00:23 | 47.44602 | -122.30249 | 402 ft | 4 kts | 263° |
| 2026-05-06 00:24 | 47.44609 | -122.30215 | 402 ft | 4 kts | 220° |
| 2026-05-06 00:24 | 47.44627 | -122.30204 | 401 ft | 4 kts | 195° |
| 2026-05-06 00:24 | 47.44649 | -122.30187 | 401 ft | 4 kts | 235° |
| 2026-05-06 00:24 | 47.44658 | -122.30152 | 404 ft | 4 kts | 264° |
| 2026-05-06 00:25 | 47.44659 | -122.30147 | 404 ft | 2 kts | 264° |
| 2026-05-06 00:30 | 47.44659 | -122.30153 | 404 ft | 4 kts | 267° |
| 2026-05-06 00:31 | 47.44684 | -122.30262 | 404 ft | 15 kts | 320° |
| 2026-05-06 00:31 | 47.44757 | -122.30368 | 406 ft | 14 kts | 310° |
| 2026-05-06 00:31 | 47.44806 | -122.30512 | 406 ft | 18 kts | 276° |
| 2026-05-06 00:31 | 47.44823 | -122.30609 | 403 ft | 9 kts | 319° |
| 2026-05-06 00:32 | 47.44898 | -122.30629 | 407 ft | 15 kts | 0° |
| 2026-05-06 00:32 | 47.45018 | -122.30627 | 411 ft | 18 kts | 0° |
| 2026-05-06 00:32 | 47.45144 | -122.30626 | 412 ft | 18 kts | 0° |
| 2026-05-06 00:32 | 47.45265 | -122.30625 | 414 ft | 17 kts | 0° |
| 2026-05-06 00:33 | 47.45391 | -122.30624 | 423 ft | 20 kts | 0° |
| 2026-05-06 00:33 | 47.45531 | -122.30623 | 426 ft | 20 kts | 0° |
| 2026-05-06 00:33 | 47.45668 | -122.30621 | 424 ft | 19 kts | 0° |
| 2026-05-06 00:33 | 47.45801 | -122.30620 | 424 ft | 19 kts | 0° |
| 2026-05-06 00:34 | 47.45930 | -122.30619 | 428 ft | 18 kts | 0° |
| 2026-05-06 00:34 | 47.46055 | -122.30618 | 431 ft | 18 kts | 0° |
| 2026-05-06 00:34 | 47.46176 | -122.30616 | 429 ft | 17 kts | 0° |
| 2026-05-06 00:34 | 47.46287 | -122.30616 | 433 ft | 15 kts | 0° |
| 2026-05-06 00:35 | 47.46361 | -122.30635 | 434 ft | 0 kts | 319° |
| 2026-05-06 00:35 | 47.46361 | -122.30636 | 434 ft | 0 kts | 319° |
| 2026-05-06 00:35 | 47.46375 | -122.30671 | 433 ft | 9 kts | 288° |
| 2026-05-06 00:35 | 47.46330 | -122.30766 | 434 ft | 16 kts | 201° |
| 2026-05-06 00:36 | 47.46279 | -122.30777 | 433 ft | 0 kts | 181° |
| 2026-05-06 00:38 | 47.46197 | -122.30779 | 430 ft | 43 kts | 180° |
| 2026-05-06 00:39 | 47.45635 | -122.30784 | 422 ft | 116 kts | 180° |
| 2026-05-06 00:39 | 47.44636 | -122.30799 | 413 ft | 171 kts | 180° |
| 2026-05-06 00:39 | 47.43428 | -122.30808 | 1028 ft | 177 kts | 182° |
| 2026-05-06 00:39 | 47.42177 | -122.30788 | 1797 ft | 181 kts | 181° |
| 2026-05-06 00:40 | 47.40891 | -122.30820 | 2412 ft | 195 kts | 182° |
| 2026-05-06 00:40 | 47.39438 | -122.30868 | 2655 ft | 223 kts | 182° |
| 2026-05-06 00:40 | 47.37781 | -122.30926 | 2911 ft | 252 kts | 182° |
| 2026-05-06 00:40 | 47.35977 | -122.30996 | 3523 ft | 265 kts | 182° |
| 2026-05-06 00:41 | 47.34107 | -122.31233 | 4207 ft | 276 kts | 197° |
| 2026-05-06 00:41 | 47.32479 | -122.32673 | 5013 ft | 276 kts | 230° |
| 2026-05-06 00:41 | 47.31575 | -122.35129 | 5809 ft | 275 kts | 257° |
| 2026-05-06 00:41 | 47.31224 | -122.37907 | 6597 ft | 277 kts | 263° |
| 2026-05-06 00:42 | 47.30939 | -122.40736 | 7372 ft | 281 kts | 263° |
| 2026-05-06 00:42 | 47.30842 | -122.43604 | 8152 ft | 282 kts | 283° |
| 2026-05-06 00:42 | 47.31515 | -122.46294 | 8960 ft | 281 kts | 299° |
| 2026-05-06 00:42 | 47.32442 | -122.48844 | 9738 ft | 284 kts | 300° |
| 2026-05-06 00:43 | 47.33429 | -122.51404 | 10365 ft | 293 kts | 306° |
| 2026-05-06 00:43 | 47.34878 | -122.53655 | 10543 ft | 314 kts | 320° |
| 2026-05-06 00:43 | 47.36602 | -122.55817 | 10742 ft | 336 kts | 321° |
| 2026-05-06 00:43 | 47.38399 | -122.58047 | 11193 ft | 346 kts | 321° |
| 2026-05-06 00:44 | 47.40246 | -122.60356 | 11874 ft | 349 kts | 321° |
| 2026-05-06 00:44 | 47.42094 | -122.62691 | 12601 ft | 351 kts | 320° |
| 2026-05-06 00:44 | 47.43954 | -122.65059 | 13272 ft | 354 kts | 320° |
| 2026-05-06 00:44 | 47.45824 | -122.67455 | 13916 ft | 358 kts | 320° |
| 2026-05-06 00:45 | 47.47709 | -122.69880 | 14513 ft | 361 kts | 320° |
| 2026-05-06 00:45 | 47.49607 | -122.72328 | 15131 ft | 363 kts | 320° |
| 2026-05-06 00:45 | 47.51518 | -122.74796 | 15743 ft | 365 kts | 320° |
| 2026-05-06 00:45 | 47.53439 | -122.77280 | 16351 ft | 368 kts | 320° |
| 2026-05-06 00:46 | 47.55373 | -122.79786 | 16971 ft | 371 kts | 320° |
| 2026-05-06 00:46 | 47.57321 | -122.82309 | 17547 ft | 374 kts | 320° |
| 2026-05-06 00:46 | 47.59284 | -122.84853 | 18132 ft | 377 kts | 320° |
| 2026-05-06 00:46 | 47.61264 | -122.87421 | 18655 ft | 379 kts | 320° |
| 2026-05-06 00:47 | 47.63255 | -122.90008 | 19150 ft | 383 kts | 320° |
| 2026-05-06 00:47 | 47.65100 | -122.92868 | 19648 ft | 388 kts | 306° |
| 2026-05-06 00:47 | 47.66531 | -122.96268 | 20224 ft | 390 kts | 303° |
| 2026-05-06 00:47 | 47.67948 | -122.99710 | 20749 ft | 392 kts | 303° |
| 2026-05-06 00:48 | 47.69382 | -123.03171 | 21241 ft | 395 kts | 304° |
| 2026-05-06 00:48 | 47.70832 | -123.06646 | 21702 ft | 397 kts | 304° |
| 2026-05-06 00:48 | 47.72297 | -123.10136 | 22228 ft | 400 kts | 304° |
| 2026-05-06 00:48 | 47.73778 | -123.13656 | 22745 ft | 402 kts | 304° |
| 2026-05-06 00:49 | 47.75259 | -123.17183 | 23224 ft | 404 kts | 304° |
| 2026-05-06 00:49 | 47.76730 | -123.20700 | 23630 ft | 406 kts | 304° |
| 2026-05-06 00:49 | 47.78232 | -123.24263 | 24001 ft | 408 kts | 304° |
| 2026-05-06 00:49 | 47.79746 | -123.27853 | 24401 ft | 411 kts | 304° |
| 2026-05-06 00:50 | 47.81259 | -123.31456 | 24844 ft | 412 kts | 304° |
| 2026-05-06 00:50 | 47.82778 | -123.35083 | 25248 ft | 414 kts | 304° |
| 2026-05-06 00:50 | 47.84304 | -123.38733 | 25660 ft | 416 kts | 304° |
| 2026-05-06 00:50 | 47.85838 | -123.42409 | 26035 ft | 418 kts | 304° |
| 2026-05-06 00:51 | 47.87392 | -123.46084 | 26411 ft | 420 kts | 307° |
| 2026-05-06 00:51 | 47.89354 | -123.49284 | 26742 ft | 419 kts | 323° |
| 2026-05-06 00:51 | 47.91736 | -123.51799 | 27114 ft | 420 kts | 326° |
| 2026-05-06 00:51 | 47.94132 | -123.54309 | 27496 ft | 422 kts | 325° |
| 2026-05-06 00:52 | 47.96523 | -123.56861 | 27828 ft | 425 kts | 325° |
| 2026-05-06 00:52 | 47.98925 | -123.59454 | 28206 ft | 426 kts | 325° |
| 2026-05-06 00:52 | 48.01322 | -123.62062 | 28673 ft | 425 kts | 325° |
| 2026-05-06 00:52 | 48.03740 | -123.64580 | 29224 ft | 423 kts | 325° |
| 2026-05-06 00:53 | 48.06112 | -123.67150 | 29793 ft | 420 kts | 324° |
| 2026-05-06 00:53 | 48.08458 | -123.69745 | 30300 ft | 419 kts | 324° |
| 2026-05-06 00:53 | 48.10794 | -123.72338 | 30699 ft | 418 kts | 324° |
| 2026-05-06 00:53 | 48.13130 | -123.74926 | 31060 ft | 418 kts | 324° |
| 2026-05-06 00:54 | 48.15471 | -123.77513 | 31444 ft | 417 kts | 324° |
| 2026-05-06 00:54 | 48.17799 | -123.80080 | 31844 ft | 416 kts | 324° |
| 2026-05-06 00:54 | 48.20133 | -123.82650 | 32232 ft | 415 kts | 324° |
| 2026-05-06 00:54 | 48.22429 | -123.85178 | 32570 ft | 415 kts | 324° |
| 2026-05-06 00:55 | 48.24735 | -123.87718 | 32922 ft | 414 kts | 324° |
| 2026-05-06 00:55 | 48.27053 | -123.90274 | 33282 ft | 413 kts | 324° |
| 2026-05-06 00:55 | 48.29365 | -123.92826 | 33647 ft | 412 kts | 324° |
| 2026-05-06 00:55 | 48.31674 | -123.95377 | 33982 ft | 411 kts | 323° |
| 2026-05-06 00:56 | 48.33986 | -123.97935 | 34023 ft | 415 kts | 323° |
| 2026-05-06 00:56 | 48.38625 | -124.03078 | 34037 ft | 412 kts | 323° |
| 2026-05-06 00:57 | 48.43218 | -124.08180 | 34039 ft | 409 kts | 323° |
| 2026-05-06 00:57 | 48.47780 | -124.13261 | 34054 ft | 407 kts | 323° |
| 2026-05-06 00:58 | 48.52328 | -124.18338 | 34061 ft | 408 kts | 323° |
| 2026-05-06 00:58 | 48.56931 | -124.23488 | 34067 ft | 415 kts | 323° |
| 2026-05-06 00:59 | 48.61577 | -124.28697 | 34052 ft | 416 kts | 323° |
| 2026-05-06 00:59 | 48.66224 | -124.33923 | 34058 ft | 417 kts | 322° |
| 2026-05-06 01:00 | 48.70876 | -124.39159 | 34049 ft | 417 kts | 322° |
| 2026-05-06 01:00 | 48.75528 | -124.44412 | 34038 ft | 416 kts | 322° |
| 2026-05-06 01:01 | 48.80168 | -124.49650 | 34033 ft | 415 kts | 322° |
| 2026-05-06 01:01 | 48.84789 | -124.54896 | 34041 ft | 415 kts | 322° |
| 2026-05-06 01:02 | 48.89373 | -124.60121 | 34027 ft | 414 kts | 322° |
| 2026-05-06 01:02 | 48.93975 | -124.65366 | 34037 ft | 413 kts | 322° |
| 2026-05-06 01:03 | 48.98567 | -124.70611 | 34045 ft | 413 kts | 322° |
| 2026-05-06 01:03 | 49.03166 | -124.75887 | 34032 ft | 414 kts | 322° |
| 2026-05-06 01:04 | 49.07774 | -124.81171 | 34043 ft | 415 kts | 321° |
| 2026-05-06 01:04 | 49.12394 | -124.86455 | 34029 ft | 416 kts | 321° |
| 2026-05-06 01:05 | 49.17022 | -124.91753 | 34021 ft | 416 kts | 321° |
| 2026-05-06 01:05 | 49.21653 | -124.97070 | 34029 ft | 417 kts | 321° |
| 2026-05-06 01:06 | 49.26294 | -125.02414 | 34020 ft | 417 kts | 321° |
| 2026-05-06 01:06 | 49.30930 | -125.07766 | 34018 ft | 417 kts | 321° |
| 2026-05-06 01:07 | 49.35564 | -125.13129 | 34021 ft | 417 kts | 321° |
| 2026-05-06 01:07 | 49.40200 | -125.18507 | 34010 ft | 417 kts | 321° |
| 2026-05-06 01:08 | 49.44830 | -125.23869 | 34023 ft | 417 kts | 320° |
| 2026-05-06 01:08 | 49.49438 | -125.29269 | 34013 ft | 417 kts | 320° |
| 2026-05-06 01:09 | 49.54059 | -125.34679 | 34038 ft | 418 kts | 320° |
| 2026-05-06 01:09 | 49.58716 | -125.40073 | 34022 ft | 419 kts | 321° |
| 2026-05-06 01:10 | 49.63335 | -125.45488 | 34009 ft | 420 kts | 320° |
| 2026-05-06 01:10 | 49.67971 | -125.50976 | 34019 ft | 420 kts | 320° |
| 2026-05-06 01:11 | 49.71823 | -125.55538 | 34003 ft | 420 kts | 320° |
| 2026-05-06 01:11 | 49.76459 | -125.61017 | 33986 ft | 418 kts | 320° |
| 2026-05-06 01:12 | 49.81104 | -125.66345 | 34039 ft | 413 kts | 320° |
| 2026-05-06 01:12 | 49.85653 | -125.71793 | 33995 ft | 413 kts | 319° |
| 2026-05-06 01:13 | 49.90198 | -125.77270 | 34007 ft | 415 kts | 319° |
| 2026-05-06 01:13 | 49.94768 | -125.82765 | 34012 ft | 415 kts | 319° |
| 2026-05-06 01:14 | 50.01658 | -125.91036 | 34020 ft | 419 kts | 319° |
| 2026-05-06 01:14 | 50.06222 | -125.96665 | 34020 ft | 419 kts | 318° |
| 2026-05-06 01:15 | 50.10840 | -126.02214 | 34021 ft | 420 kts | 319° |
| 2026-05-06 01:15 | 50.15497 | -126.07771 | 34008 ft | 421 kts | 319° |
| 2026-05-06 01:16 | 50.20139 | -126.13360 | 34029 ft | 423 kts | 319° |
| 2026-05-06 01:16 | 50.24754 | -126.18969 | 34031 ft | 424 kts | 319° |
| 2026-05-06 01:17 | 50.29417 | -126.24636 | 34032 ft | 424 kts | 319° |
| 2026-05-06 01:17 | 50.34069 | -126.30321 | 34026 ft | 423 kts | 319° |
| 2026-05-06 01:18 | 50.38713 | -126.35987 | 34015 ft | 421 kts | 319° |
| 2026-05-06 01:18 | 50.43319 | -126.41653 | 34019 ft | 420 kts | 318° |
| 2026-05-06 01:19 | 50.47905 | -126.47282 | 34035 ft | 417 kts | 318° |
| 2026-05-06 01:19 | 50.52469 | -126.52896 | 34031 ft | 415 kts | 318° |
| 2026-05-06 01:20 | 50.57006 | -126.58497 | 34034 ft | 415 kts | 318° |
| 2026-05-06 01:20 | 50.61559 | -126.64135 | 34048 ft | 420 kts | 317° |
| 2026-05-06 01:21 | 50.66177 | -126.69876 | 34043 ft | 424 kts | 317° |
| 2026-05-06 01:21 | 50.70820 | -126.75654 | 34042 ft | 425 kts | 317° |
| 2026-05-06 01:22 | 50.75458 | -126.81442 | 34044 ft | 425 kts | 317° |
| 2026-05-06 01:22 | 50.80066 | -126.87206 | 34040 ft | 425 kts | 317° |
| 2026-05-06 01:23 | 50.84706 | -126.93029 | 34043 ft | 425 kts | 317° |
| 2026-05-06 01:23 | 50.89335 | -126.98852 | 34046 ft | 425 kts | 317° |
| 2026-05-06 01:24 | 50.93960 | -127.04685 | 34045 ft | 425 kts | 317° |
| 2026-05-06 01:24 | 50.98581 | -127.10530 | 34043 ft | 425 kts | 316° |
| 2026-05-06 01:25 | 51.03190 | -127.16369 | 34060 ft | 423 kts | 316° |
| 2026-05-06 01:25 | 51.07761 | -127.22180 | 34046 ft | 424 kts | 316° |
| 2026-05-06 01:26 | 51.12392 | -127.28078 | 34047 ft | 424 kts | 316° |
| 2026-05-06 01:26 | 51.16956 | -127.33923 | 34057 ft | 424 kts | 316° |
| 2026-05-06 01:27 | 51.21561 | -127.39817 | 34065 ft | 425 kts | 316° |
| 2026-05-06 01:27 | 51.26176 | -127.45746 | 34054 ft | 427 kts | 316° |
| 2026-05-06 01:28 | 51.30802 | -127.51713 | 34050 ft | 428 kts | 316° |
| 2026-05-06 01:28 | 51.35449 | -127.57713 | 34057 ft | 430 kts | 316° |
| 2026-05-06 01:29 | 51.40104 | -127.63740 | 34059 ft | 432 kts | 315° |
| 2026-05-06 01:29 | 51.44771 | -127.69798 | 34050 ft | 432 kts | 315° |
| 2026-05-06 01:30 | 51.49439 | -127.75875 | 34073 ft | 432 kts | 315° |
| 2026-05-06 01:30 | 51.54082 | -127.81936 | 34061 ft | 431 kts | 315° |
| 2026-05-06 01:31 | 51.58729 | -127.88018 | 34071 ft | 430 kts | 314° |
| 2026-05-06 01:31 | 51.63358 | -127.94096 | 34064 ft | 430 kts | 314° |
| 2026-05-06 01:32 | 51.67957 | -128.00142 | 34071 ft | 428 kts | 315° |
| 2026-05-06 01:32 | 51.72560 | -128.06219 | 34069 ft | 428 kts | 315° |
| 2026-05-06 01:33 | 51.77147 | -128.12292 | 34087 ft | 426 kts | 314° |
| 2026-05-06 01:33 | 51.81735 | -128.18387 | 34079 ft | 429 kts | 314° |
| 2026-05-06 01:34 | 51.86354 | -128.24536 | 34076 ft | 431 kts | 314° |
| 2026-05-06 01:34 | 51.90984 | -128.30713 | 34070 ft | 432 kts | 314° |
| 2026-05-06 01:35 | 51.95624 | -128.36921 | 34067 ft | 432 kts | 314° |
| 2026-05-06 01:35 | 52.00261 | -128.43140 | 34073 ft | 432 kts | 313° |
| 2026-05-06 01:36 | 52.04891 | -128.49370 | 34070 ft | 432 kts | 313° |
| 2026-05-06 01:36 | 52.09513 | -128.55607 | 34062 ft | 431 kts | 313° |
| 2026-05-06 01:37 | 52.14117 | -128.61837 | 34062 ft | 430 kts | 313° |
| 2026-05-06 01:37 | 52.18704 | -128.68061 | 34056 ft | 429 kts | 313° |
| 2026-05-06 01:38 | 52.23249 | -128.74243 | 34055 ft | 428 kts | 313° |
| 2026-05-06 01:38 | 52.27931 | -128.80383 | 34056 ft | 429 kts | 315° |
| 2026-05-06 01:39 | 52.32668 | -128.86328 | 34057 ft | 429 kts | 315° |
| 2026-05-06 01:39 | 52.37367 | -128.92245 | 34077 ft | 429 kts | 315° |
| 2026-05-06 01:40 | 52.42090 | -128.98247 | 34063 ft | 430 kts | 314° |
| 2026-05-06 01:40 | 52.46804 | -129.04276 | 34060 ft | 430 kts | 314° |
| 2026-05-06 01:41 | 52.55790 | -129.15827 | 34062 ft | 431 kts | 314° |
| 2026-05-06 01:42 | 52.60510 | -129.21919 | 34067 ft | 431 kts | 314° |
| 2026-05-06 01:42 | 52.65230 | -129.28027 | 34063 ft | 431 kts | 314° |
| 2026-05-06 01:43 | 52.69940 | -129.34139 | 34065 ft | 431 kts | 314° |
| 2026-05-06 01:43 | 52.74646 | -129.40263 | 34065 ft | 431 kts | 314° |
| 2026-05-06 01:44 | 52.79348 | -129.46398 | 34089 ft | 431 kts | 313° |
| 2026-05-06 01:44 | 52.84016 | -129.52508 | 34069 ft | 430 kts | 313° |
| 2026-05-06 01:45 | 52.88705 | -129.58663 | 34061 ft | 430 kts | 313° |
| 2026-05-06 01:45 | 52.93417 | -129.64864 | 34061 ft | 429 kts | 313° |
| 2026-05-06 01:46 | 52.98055 | -129.70987 | 34066 ft | 429 kts | 313° |
| 2026-05-06 01:46 | 53.02718 | -129.77160 | 34082 ft | 429 kts | 313° |
| 2026-05-06 01:47 | 53.07379 | -129.83349 | 34076 ft | 429 kts | 313° |
| 2026-05-06 01:47 | 53.12038 | -129.89551 | 34082 ft | 428 kts | 313° |
| 2026-05-06 01:48 | 53.16691 | -129.95763 | 34085 ft | 429 kts | 313° |
| 2026-05-06 01:48 | 53.21345 | -130.01995 | 34098 ft | 429 kts | 313° |
| 2026-05-06 01:49 | 53.26001 | -130.08248 | 34095 ft | 429 kts | 313° |
| 2026-05-06 01:49 | 53.30652 | -130.14511 | 34089 ft | 430 kts | 313° |
| 2026-05-06 01:50 | 53.35299 | -130.20787 | 34096 ft | 429 kts | 313° |
| 2026-05-06 01:50 | 53.39944 | -130.27079 | 34110 ft | 429 kts | 313° |
| 2026-05-06 01:51 | 53.44588 | -130.33387 | 34112 ft | 429 kts | 313° |
| 2026-05-06 01:51 | 53.49197 | -130.39666 | 34102 ft | 429 kts | 313° |
| 2026-05-06 01:52 | 53.53826 | -130.45990 | 34092 ft | 428 kts | 313° |
| 2026-05-06 01:52 | 53.58436 | -130.52306 | 34099 ft | 427 kts | 313° |
| 2026-05-06 01:53 | 53.63036 | -130.58627 | 34106 ft | 427 kts | 312° |
| 2026-05-06 01:53 | 53.67627 | -130.64956 | 34099 ft | 426 kts | 312° |
| 2026-05-06 01:54 | 53.72209 | -130.71289 | 34098 ft | 425 kts | 312° |
| 2026-05-06 01:54 | 53.76773 | -130.77614 | 34100 ft | 424 kts | 312° |
| 2026-05-06 01:55 | 53.81320 | -130.83937 | 34115 ft | 423 kts | 312° |
| 2026-05-06 01:55 | 53.85836 | -130.90235 | 34123 ft | 423 kts | 312° |
| 2026-05-06 01:56 | 53.90373 | -130.96579 | 34133 ft | 422 kts | 312° |
| 2026-05-06 01:56 | 53.94896 | -131.02923 | 34138 ft | 421 kts | 312° |
| 2026-05-06 01:57 | 53.99405 | -131.09265 | 34136 ft | 421 kts | 312° |
| 2026-05-06 01:57 | 54.03912 | -131.15624 | 34167 ft | 421 kts | 313° |
| 2026-05-06 01:58 | 54.08412 | -131.21991 | 34150 ft | 421 kts | 313° |
| 2026-05-06 01:58 | 54.12910 | -131.28373 | 34144 ft | 421 kts | 312° |
| 2026-05-06 01:59 | 54.17411 | -131.34779 | 34142 ft | 421 kts | 312° |
| 2026-05-06 01:59 | 54.21903 | -131.41190 | 34140 ft | 421 kts | 312° |
| 2026-05-06 02:00 | 54.26396 | -131.47623 | 34145 ft | 421 kts | 312° |
| 2026-05-06 02:00 | 54.30880 | -131.54060 | 34132 ft | 421 kts | 312° |
| 2026-05-06 02:01 | 54.35366 | -131.60519 | 34137 ft | 421 kts | 312° |
| 2026-05-06 02:01 | 54.39852 | -131.66996 | 34135 ft | 422 kts | 312° |
| 2026-05-06 02:02 | 54.44337 | -131.73493 | 34155 ft | 422 kts | 312° |
| 2026-05-06 02:02 | 54.48795 | -131.79969 | 34133 ft | 422 kts | 312° |
| 2026-05-06 02:03 | 54.53277 | -131.86499 | 34131 ft | 422 kts | 312° |
| 2026-05-06 02:03 | 54.57752 | -131.93037 | 34134 ft | 421 kts | 312° |
| 2026-05-06 02:04 | 54.62218 | -131.99583 | 34133 ft | 421 kts | 312° |
| 2026-05-06 02:04 | 54.66673 | -132.06133 | 34155 ft | 421 kts | 312° |
| 2026-05-06 02:05 | 54.71120 | -132.12692 | 34138 ft | 421 kts | 312° |
| 2026-05-06 02:05 | 54.75559 | -132.19256 | 34125 ft | 420 kts | 311° |
| 2026-05-06 02:06 | 54.80001 | -132.25842 | 34116 ft | 419 kts | 311° |
| 2026-05-06 02:06 | 54.84429 | -132.32431 | 34117 ft | 419 kts | 311° |